Time;durP1;ratioP1;P1;durP2;ratioP2;P2;SDS_P1;SDS_P2;PMS_P1;PMS_P2;Temp;Humidity;BMP_temperature;BMP_pressure;BME280_temperature;BME280_humidity;BME280_pressure;Samples;Min_cycle;Max_cycle;Signal;HPM_P1;HPM_P2
2021/09/14 00:01:46;;;;;;;16.55;9.30;;;;;;;;;;5067845;28;20028;-87
2021/09/14 00:04:11;;;;;;;17.88;9.32;;;;;;;;;;5052380;28;20017;-87
2021/09/14 00:06:40;;;;;;;17.13;9.35;;;;;;;;;;5052738;28;20029;-87
2021/09/14 00:09:05;;;;;;;16.73;8.93;;;;;;;;;;5053990;28;20009;-88
2021/09/14 00:11:32;;;;;;;18.42;10.27;;;;;;;;;;5053195;28;20017;-87
2021/09/14 00:13:57;;;;;;;19.27;10.32;;;;;;;;;;5053622;28;20120;-88
2021/09/14 00:16:22;;;;;;;14.75;9.48;;;;;;;;;;5053345;28;20059;-87
2021/09/14 00:18:47;;;;;;;16.20;9.38;;;;;;;;;;5053708;28;20059;-88
2021/09/14 00:21:12;;;;;;;16.00;9.65;;;;;;;;;;5054222;28;20057;-87
2021/09/14 00:23:38;;;;;;;22.75;9.90;;;;;;;;;;5053518;28;20476;-87
2021/09/14 00:26:03;;;;;;;15.25;9.68;;;;;;;;;;5052996;28;20029;-87
2021/09/14 00:28:28;;;;;;;15.63;10.32;;;;;;;;;;5053289;28;20064;-87
2021/09/14 00:30:53;;;;;;;15.88;9.40;;;;;;;;;;5084468;28;20523;-87
2021/09/14 00:33:19;;;;;;;18.52;10.02;;;;;;;;;;5053389;28;20349;-87
2021/09/14 00:35:44;;;;;;;16.90;10.32;;;;;;;;;;5053381;28;20017;-87
2021/09/14 00:38:09;;;;;;;15.60;9.55;;;;;;;;;;5079360;28;20061;-87
2021/09/14 00:40:35;;;;;;;17.20;9.82;;;;;;;;;;5053007;28;20048;-87
2021/09/14 00:43:00;;;;;;;21.15;10.40;;;;;;;;;;5052724;28;20017;-88
2021/09/14 00:45:25;;;;;;;20.17;9.90;;;;;;;;;;5052847;28;20029;-87
2021/09/14 00:47:50;;;;;;;19.40;10.55;;;;;;;;;;5052888;28;20522;-87
2021/09/14 00:50:16;;;;;;;18.98;10.38;;;;;;;;;;5052306;28;20033;-88
2021/09/14 00:52:41;;;;;;;19.70;10.88;;;;;;;;;;5052996;28;20032;-87
2021/09/14 00:55:06;;;;;;;21.98;10.20;;;;;;;;;;5086511;28;20032;-87
2021/09/14 00:57:32;;;;;;;22.73;11.80;;;;;;;;;;5086258;28;20028;-87
2021/09/14 00:59:57;;;;;;;21.58;11.50;;;;;;;;;;5051868;28;20028;-88
2021/09/14 01:02:22;;;;;;;16.48;10.07;;;;;;;;;;5053668;28;20044;-88
2021/09/14 01:04:48;;;;;;;21.63;10.93;;;;;;;;;;5086155;28;20021;-87
2021/09/14 01:07:13;;;;;;;17.52;10.38;;;;;;;;;;5085682;28;20437;-87
2021/09/14 01:09:38;;;;;;;15.57;9.82;;;;;;;;;;5076654;28;20025;-87
2021/09/14 01:12:04;;;;;;;18.88;10.50;;;;;;;;;;5053572;28;20021;-87
2021/09/14 01:14:29;;;;;;;22.00;10.88;;;;;;;;;;5085955;28;20059;-87
2021/09/14 01:16:55;;;;;;;19.40;10.90;;;;;;;;;;5085502;28;20473;-88
2021/09/14 01:19:20;;;;;;;22.63;11.15;;;;;;;;;;5051884;28;20024;-87
2021/09/14 01:21:45;;;;;;;24.30;11.63;;;;;;;;;;5052309;28;20112;-88
2021/09/14 01:24:12;;;;;;;23.15;11.52;;;;;;;;;;5085713;28;20031;-88
2021/09/14 01:26:38;;;;;;;21.10;11.13;;;;;;;;;;5085180;28;20028;-87
2021/09/14 01:29:10;;;;;;;20.45;11.20;;;;;;;;;;5052073;28;20024;-87
2021/09/14 01:31:35;;;;;;;;;;;;;;;;;;5077861;28;20013;-87
2021/09/14 01:34:00;;;;;;;22.20;11.40;;;;;;;;;;5052303;28;20284;-87
2021/09/14 01:36:25;;;;;;;21.23;12.05;;;;;;;;;;5085378;28;20033;-88
2021/09/14 01:38:51;;;;;;;26.02;11.68;;;;;;;;;;5085353;28;20025;-86
2021/09/14 01:41:16;;;;;;;27.10;12.60;;;;;;;;;;5085259;28;20250;-87
2021/09/14 01:43:42;;;;;;;23.38;11.38;;;;;;;;;;5051652;28;20029;-87
2021/09/14 01:46:07;;;;;;;19.92;11.75;;;;;;;;;;5085189;28;20542;-87
2021/09/14 01:48:33;;;;;;;19.55;11.43;;;;;;;;;;5085278;28;20013;-86
2021/09/14 01:50:58;;;;;;;20.50;11.75;;;;;;;;;;5073708;28;20036;-87
2021/09/14 01:53:25;;;;;;;24.60;11.93;;;;;;;;;;5050272;28;20005;-87
2021/09/14 01:55:52;;;;;;;22.17;11.30;;;;;;;;;;5052991;28;20017;-87
2021/09/14 01:58:18;;;;;;;20.92;11.52;;;;;;;;;;5052616;28;20028;-87
2021/09/14 02:00:59;;;;;;;21.30;12.32;;;;;;;;;;5085149;28;20029;-87
2021/09/14 02:03:30;;;;;;;24.45;12.95;;;;;;;;;;5051634;28;20025;-88
2021/09/14 02:39:03;;;;;;;24.55;12.88;;;;;;;;;;5057171;28;20091;-87
2021/09/14 02:59:59;;;;;;;23.50;13.18;;;;;;;;;;5056353;28;20099;-87
2021/09/14 03:02:24;;;;;;;24.88;14.10;;;;;;;;;;5056631;28;20104;-87
2021/09/14 03:04:49;;;;;;;26.98;15.18;;;;;;;;;;5088399;28;20159;-87
2021/09/14 03:07:14;;;;;;;32.95;14.32;;;;;;;;;;5054406;28;20451;-87
2021/09/14 03:09:39;;;;;;;29.10;14.88;;;;;;;;;;5087433;28;20098;-87
2021/09/14 03:12:05;;;;;;;29.10;14.55;;;;;;;;;;5054775;28;20078;-87
2021/09/14 03:14:30;;;;;;;26.55;13.45;;;;;;;;;;5088186;28;20043;-87
2021/09/14 03:16:55;;;;;;;27.42;14.52;;;;;;;;;;5088484;28;20021;-87
2021/09/14 03:19:20;;;;;;;28.98;15.35;;;;;;;;;;5088216;28;20024;-87
2021/09/14 03:21:46;;;;;;;27.85;14.18;;;;;;;;;;5078027;28;20040;-87
2021/09/14 03:24:11;;;;;;;27.88;14.70;;;;;;;;;;5088025;28;20689;-87
2021/09/14 03:26:36;;;;;;;25.30;14.75;;;;;;;;;;5087975;28;20083;-87
2021/09/14 03:29:01;;;;;;;27.13;14.98;;;;;;;;;;5054272;28;20388;-87
2021/09/14 03:31:27;;;;;;;31.23;15.75;;;;;;;;;;5054992;28;20032;-88
2021/09/14 03:33:53;;;;;;;28.40;15.60;;;;;;;;;;5088007;28;20021;-87
2021/09/14 03:36:20;;;;;;;27.25;14.95;;;;;;;;;;5088067;28;20028;-88
2021/09/14 03:38:45;;;;;;;28.52;15.60;;;;;;;;;;5087917;28;20020;-87
2021/09/14 03:41:10;;;;;;;29.30;15.45;;;;;;;;;;5085859;28;20029;-87
2021/09/14 03:43:35;;;;;;;27.00;15.32;;;;;;;;;;5087818;28;20017;-87
2021/09/14 03:46:01;;;;;;;27.98;14.85;;;;;;;;;;5087571;28;20021;-87
2021/09/14 03:48:26;;;;;;;33.97;15.40;;;;;;;;;;5087782;28;20495;-87
2021/09/14 03:50:51;;;;;;;31.67;16.15;;;;;;;;;;5083357;28;20483;-87
2021/09/14 03:53:16;;;;;;;32.17;17.02;;;;;;;;;;5087226;28;20029;-87
2021/09/14 03:55:42;;;;;;;32.97;16.02;;;;;;;;;;5087421;28;20082;-86
2021/09/14 03:58:07;;;;;;;27.58;14.68;;;;;;;;;;5053157;28;20487;-86
2021/09/14 04:00:32;;;;;;;27.42;14.73;;;;;;;;;;5052118;28;20403;-87
2021/09/14 04:03:07;;;;;;;25.88;15.07;;;;;;;;;;5052153;28;20021;-87
2021/09/14 04:10:36;;;;;;;28.10;16.02;;;;;;;;;;5053289;28;20021;-87
2021/09/14 04:13:01;;;;;;;28.60;15.32;;;;;;;;;;5053469;28;20100;-87
2021/09/14 04:15:26;;;;;;;38.15;16.45;;;;;;;;;;5084638;28;20021;-87
2021/09/14 04:17:51;;;;;;;26.95;15.57;;;;;;;;;;5052256;28;20380;-88
2021/09/14 04:20:16;;;;;;;26.05;15.38;;;;;;;;;;5052217;28;20465;-87
2021/09/14 04:22:42;;;;;;;28.42;16.30;;;;;;;;;;5052176;28;20028;-87
2021/09/14 04:25:07;;;;;;;39.28;17.00;;;;;;;;;;5085520;28;20021;-87
2021/09/14 04:27:32;;;;;;;30.45;17.45;;;;;;;;;;5085463;28;20045;-86
2021/09/14 04:29:58;;;;;;;29.98;15.85;;;;;;;;;;5053249;28;20020;-87
2021/09/14 04:32:23;;;;;;;30.33;15.90;;;;;;;;;;5054620;28;20449;-87
2021/09/14 04:34:48;;;;;;;29.67;15.68;;;;;;;;;;5086587;28;20460;-87
2021/09/14 04:37:13;;;;;;;28.90;15.57;;;;;;;;;;5054685;28;20025;-88
2021/09/14 04:39:38;;;;;;;32.00;15.88;;;;;;;;;;5053131;28;20084;-88
2021/09/14 04:42:03;;;;;;;30.63;15.95;;;;;;;;;;5053827;28;20598;-86
2021/09/14 04:44:29;;;;;;;28.90;15.68;;;;;;;;;;5053889;28;20017;-87
2021/09/14 04:46:54;;;;;;;32.65;16.08;;;;;;;;;;5053079;28;20415;-87
2021/09/14 04:49:19;;;;;;;28.92;17.00;;;;;;;;;;5086255;28;20025;-88
2021/09/14 04:51:44;;;;;;;33.08;16.70;;;;;;;;;;5053376;28;20048;-87
2021/09/14 04:54:09;;;;;;;27.15;16.30;;;;;;;;;;5052295;28;20387;-87
2021/09/14 04:56:35;;;;;;;35.67;17.23;;;;;;;;;;5086260;28;20032;-87
2021/09/14 04:59:00;;;;;;;30.75;16.70;;;;;;;;;;5086241;28;20035;-87
2021/09/14 05:01:25;;;;;;;33.10;17.08;;;;;;;;;;5076461;28;20025;-87
2021/09/14 05:03:50;;;;;;;31.58;16.95;;;;;;;;;;5052185;28;20020;-87
2021/09/14 05:06:16;;;;;;;31.05;18.00;;;;;;;;;;5085866;28;20361;-87
2021/09/14 05:08:41;;;;;;;36.55;17.02;;;;;;;;;;5053456;28;20480;-87
2021/09/14 05:11:06;;;;;;;34.08;17.92;;;;;;;;;;5085849;28;20487;-87
2021/09/14 05:13:32;;;;;;;33.30;17.60;;;;;;;;;;5086264;28;20013;-88
2021/09/14 05:15:58;;;;;;;31.90;17.90;;;;;;;;;;5076509;28;20035;-87
2021/09/14 05:18:23;;;;;;;36.03;18.17;;;;;;;;;;5053814;28;20028;-87
2021/09/14 05:20:51;;;;;;;36.30;18.80;;;;;;;;;;5085689;28;20468;-87
2021/09/14 05:23:20;;;;;;;35.58;18.98;;;;;;;;;;5086117;28;20025;-87
2021/09/14 05:25:45;;;;;;;38.40;19.15;;;;;;;;;;5085768;28;20035;-87
2021/09/14 05:28:13;;;;;;;40.15;19.25;;;;;;;;;;5052254;28;20017;-87
2021/09/14 05:30:39;;;;;;;38.75;20.10;;;;;;;;;;5085447;28;20025;-87
2021/09/14 05:33:04;;;;;;;39.42;19.08;;;;;;;;;;5051850;28;20024;-87
2021/09/14 05:35:36;;;;;;;33.50;18.70;;;;;;;;;;5051906;28;20414;-87
2021/09/14 05:38:01;;;;;;;32.75;18.98;;;;;;;;;;5052122;28;20021;-87
2021/09/14 05:40:26;;;;;;;32.92;18.05;;;;;;;;;;5085371;28;20090;-87
2021/09/14 05:42:51;;;;;;;36.42;18.02;;;;;;;;;;5051950;28;20104;-87
2021/09/14 05:45:16;;;;;;;30.85;16.92;;;;;;;;;;5085072;28;20021;-88
2021/09/14 05:47:42;;;;;;;30.83;17.00;;;;;;;;;;5052104;28;20423;-87
2021/09/14 05:50:07;;;;;;;34.10;17.15;;;;;;;;;;5051487;28;20102;-87
2021/09/14 05:52:32;;;;;;;34.95;17.17;;;;;;;;;;5052965;28;20147;-88
2021/09/14 05:54:57;;;;;;;33.30;18.23;;;;;;;;;;5050993;28;20070;-87
2021/09/14 05:57:23;;;;;;;33.15;17.98;;;;;;;;;;5084467;28;20060;-87
2021/09/14 05:59:48;;;;;;;34.85;18.02;;;;;;;;;;5085298;28;20471;-87
2021/09/14 06:02:13;;;;;;;31.67;17.33;;;;;;;;;;5085095;28;20510;-88
2021/09/14 06:04:38;;;;;;;32.88;17.45;;;;;;;;;;5083958;28;20049;-89
2021/09/14 06:07:04;;;;;;;33.33;16.42;;;;;;;;;;5052276;28;20035;-88
2021/09/14 06:09:29;;;;;;;29.23;16.85;;;;;;;;;;5085463;28;20514;-88
2021/09/14 06:11:54;;;;;;;32.60;16.90;;;;;;;;;;5051159;28;20461;-88
2021/09/14 06:14:22;;;;;;;28.63;16.65;;;;;;;;;;5050774;28;20021;-88
2021/09/14 06:16:47;;;;;;;30.73;17.00;;;;;;;;;;5084416;28;20029;-88
2021/09/14 06:19:13;;;;;;;30.58;17.48;;;;;;;;;;5051467;28;20017;-88
2021/09/14 06:21:38;;;;;;;29.50;16.98;;;;;;;;;;5085260;28;20035;-88
2021/09/14 06:24:06;;;;;;;29.17;16.52;;;;;;;;;;5051703;28;20047;-88
2021/09/14 06:26:35;;;;;;;30.77;16.83;;;;;;;;;;5038146;28;20404;-88
2021/09/14 06:29:00;;;;;;;29.95;17.23;;;;;;;;;;5050190;28;20024;-87
2021/09/14 06:31:25;;;;;;;29.40;16.33;;;;;;;;;;5049453;28;20017;-88
2021/09/14 06:33:50;;;;;;;36.75;18.20;;;;;;;;;;5050015;28;20020;-88
2021/09/14 06:36:15;;;;;;;34.95;18.98;;;;;;;;;;5046252;28;20013;-88
2021/09/14 06:38:41;;;;;;;33.70;18.05;;;;;;;;;;5073445;28;20091;-88
2021/09/14 06:41:06;;;;;;;38.22;19.23;;;;;;;;;;5051519;28;20530;-87
2021/09/14 06:43:31;;;;;;;39.17;20.13;;;;;;;;;;5077984;28;20053;-89
2021/09/14 06:45:56;;;;;;;42.03;22.45;;;;;;;;;;5049997;28;20025;-88
2021/09/14 06:48:22;;;;;;;41.70;22.35;;;;;;;;;;5048246;28;20421;-88
2021/09/14 06:50:48;;;;;;;44.13;22.73;;;;;;;;;;5041237;28;20033;-89
2021/09/14 06:53:14;;;;;;;42.03;22.50;;;;;;;;;;5079135;28;20460;-88
2021/09/14 06:55:39;;;;;;;39.97;21.50;;;;;;;;;;5050995;28;20021;-88
2021/09/14 06:58:04;;;;;;;38.72;22.33;;;;;;;;;;5084816;28;20128;-88
2021/09/14 07:00:30;;;;;;;37.88;20.83;;;;;;;;;;5051177;28;20017;-88
2021/09/14 07:02:55;;;;;;;31.80;16.70;;;;;;;;;;5050924;28;20029;-89
2021/09/14 07:05:21;;;;;;;36.08;19.90;;;;;;;;;;5083507;28;20045;-88
2021/09/14 07:07:47;;;;;;;27.83;16.00;;;;;;;;;;5040094;28;20029;-88
2021/09/14 07:10:12;;;;;;;36.75;17.02;;;;;;;;;;5050979;28;20090;-89
2021/09/14 07:12:37;;;;;;;41.10;20.05;;;;;;;;;;5084718;28;20028;-89
2021/09/14 07:15:03;;;;;;;34.35;18.23;;;;;;;;;;5085588;28;20020;-89
2021/09/14 07:17:28;;;;;;;41.92;21.45;;;;;;;;;;5054095;28;20027;-88
2021/09/14 07:19:54;;;;;;;39.03;19.67;;;;;;;;;;5056150;28;20414;-88
2021/09/14 07:22:19;;;;;;;40.42;20.38;;;;;;;;;;5075638;28;20029;-88
2021/09/14 07:24:44;;;;;;;37.38;19.55;;;;;;;;;;5055388;28;20016;-88
2021/09/14 07:27:09;;;;;;;37.30;20.42;;;;;;;;;;5086457;28;20115;-88
2021/09/14 07:29:35;;;;;;;40.42;20.45;;;;;;;;;;5088019;28;20012;-89
2021/09/14 07:32:01;;;;;;;38.88;19.92;;;;;;;;;;5054611;28;20017;-89
2021/09/14 07:34:29;;;;;;;43.78;21.52;;;;;;;;;;5054321;28;20156;-88
2021/09/14 07:36:54;;;;;;;39.53;19.95;;;;;;;;;;5075416;28;20018;-89
2021/09/14 07:39:19;;;;;;;50.15;23.85;;;;;;;;;;5052612;28;20057;-88
2021/09/14 07:41:44;;;;;;;43.47;20.85;;;;;;;;;;5054273;28;20063;-89
2021/09/14 07:44:09;;;;;;;45.45;22.25;;;;;;;;;;5049654;28;20029;-88
2021/09/14 07:46:35;;;;;;;52.47;22.25;;;;;;;;;;5051549;28;20511;-88
2021/09/14 07:49:09;;;;;;;47.92;23.60;;;;;;;;;;5087568;28;20013;-88
2021/09/14 07:51:42;;;;;;;48.30;23.85;;;;;;;;;;5085137;28;20385;-88
2021/09/14 07:54:07;;;;;;;51.65;24.38;;;;;;;;;;5087775;28;20017;-89
2021/09/14 07:56:32;;;;;;;45.60;22.88;;;;;;;;;;5055456;28;20017;-88
2021/09/14 07:58:57;;;;;;;41.03;24.05;;;;;;;;;;5087830;28;20135;-89
2021/09/14 08:01:23;;;;;;;45.88;23.25;;;;;;;;;;5053991;28;20032;-88
2021/09/14 08:03:48;;;;;;;47.88;21.90;;;;;;;;;;5054368;28;20029;-88
2021/09/14 08:06:13;;;;;;;41.97;19.20;;;;;;;;;;5087638;28;20535;-89
2021/09/14 08:08:38;;;;;;;46.65;21.65;;;;;;;;;;5087366;28;20063;-89
2021/09/14 08:11:03;;;;;;;47.58;21.58;;;;;;;;;;5053332;28;20047;-88
2021/09/14 08:13:29;;;;;;;38.03;18.05;;;;;;;;;;5087173;28;20021;-88
2021/09/14 08:15:54;;;;;;;42.17;21.17;;;;;;;;;;5085535;28;20421;-88
2021/09/14 08:18:19;;;;;;;41.67;21.42;;;;;;;;;;5055358;28;20372;-89
2021/09/14 08:20:44;;;;;;;40.05;17.90;;;;;;;;;;5053331;28;20384;-88
2021/09/14 08:23:09;;;;;;;41.42;19.98;;;;;;;;;;5055005;28;20032;-89
2021/09/14 08:25:35;;;;;;;47.05;21.23;;;;;;;;;;5086637;28;20494;-89
2021/09/14 08:28:00;;;;;;;40.67;20.08;;;;;;;;;;5086786;28;20017;-89
2021/09/14 08:30:25;;;;;;;31.77;16.42;;;;;;;;;;5087200;28;20031;-89
2021/09/14 08:32:51;;;;;;;35.55;17.85;;;;;;;;;;5086987;28;20167;-88
2021/09/14 08:35:16;;;;;;;35.13;17.05;;;;;;;;;;5078825;28;20163;-89
2021/09/14 08:37:42;;;;;;;33.17;17.00;;;;;;;;;;5047921;28;20028;-88
2021/09/14 08:40:08;;;;;;;41.20;17.70;;;;;;;;;;5086680;28;20021;-88
2021/09/14 08:42:35;;;;;;;33.90;17.33;;;;;;;;;;5086719;28;20435;-88
2021/09/14 08:45:01;;;;;;;30.90;15.93;;;;;;;;;;5086404;28;20083;-89
2021/09/14 08:47:26;;;;;;;34.90;17.75;;;;;;;;;;5052932;28;20480;-89
2021/09/14 08:49:52;;;;;;;33.80;17.45;;;;;;;;;;5052939;28;20431;-89
2021/09/14 08:52:17;;;;;;;40.28;19.80;;;;;;;;;;5054347;28;20508;-89
2021/09/14 08:54:43;;;;;;;44.65;21.98;;;;;;;;;;5086466;28;20021;-88
2021/09/14 08:57:08;;;;;;;44.95;22.70;;;;;;;;;;5086266;28;20100;-89
2021/09/14 08:59:34;;;;;;;44.40;22.40;;;;;;;;;;5044964;28;20392;-88
2021/09/14 09:02:03;;;;;;;49.97;24.20;;;;;;;;;;5086251;28;20526;-88
2021/09/14 09:04:28;;;;;;;49.78;23.17;;;;;;;;;;5081999;28;20049;-88
2021/09/14 09:06:54;;;;;;;48.35;24.30;;;;;;;;;;5052718;28;20063;-88
2021/09/14 09:09:20;;;;;;;44.22;21.45;;;;;;;;;;5054218;28;20056;-87
2021/09/14 09:11:52;;;;;;;39.10;21.55;;;;;;;;;;5053512;28;20021;-89
2021/09/14 09:14:17;;;;;;;;;;;;;;;;;;5054243;28;20048;-88
2021/09/14 09:16:43;;;;;;;26.75;14.77;;;;;;;;;;5053948;28;20284;-88
2021/09/14 09:19:08;;;;;;;26.27;13.45;;;;;;;;;;5085956;28;20021;-88
2021/09/14 09:21:36;;;;;;;30.60;14.65;;;;;;;;;;5052536;28;20025;-88
2021/09/14 09:24:03;;;;;;;21.45;12.45;;;;;;;;;;5086107;28;20079;-88
2021/09/14 09:26:38;;;;;;;20.92;11.77;;;;;;;;;;5084544;28;20025;-89
2021/09/14 09:29:05;;;;;;;25.65;13.82;;;;;;;;;;5053294;28;20049;-88
2021/09/14 09:31:31;;;;;;;25.73;12.65;;;;;;;;;;5052340;28;20017;-88
2021/09/14 09:34:14;;;;;;;20.33;9.55;;;;;;;;;;5085864;28;20021;-89
2021/09/14 09:36:40;;;;;;;15.93;9.10;;;;;;;;;;5052190;28;20433;-89
2021/09/14 09:39:11;;;;;;;21.17;9.10;;;;;;;;;;5053427;28;20023;-89
2021/09/14 09:41:39;;;;;;;17.58;9.65;;;;;;;;;;5052234;28;20044;-88
2021/09/14 09:44:08;;;;;;;14.80;8.55;;;;;;;;;;5053456;28;20107;-88
2021/09/14 09:46:35;;;;;;;13.20;8.73;;;;;;;;;;5053174;28;20083;-89
2021/09/14 09:49:03;;;;;;;16.05;8.27;;;;;;;;;;5052162;28;20066;-89
2021/09/14 09:51:29;;;;;;;14.80;9.20;;;;;;;;;;5052225;28;20013;-89
2021/09/14 09:53:55;;;;;;;16.88;8.77;;;;;;;;;;5052072;28;20017;-89
2021/09/14 09:56:21;;;;;;;19.77;9.32;;;;;;;;;;5051500;28;20025;-89
2021/09/14 09:58:47;;;;;;;16.85;8.90;;;;;;;;;;5051779;28;20019;-88
2021/09/14 10:01:14;;;;;;;13.57;7.80;;;;;;;;;;5053025;28;20096;-87
2021/09/14 10:03:52;;;;;;;17.63;8.05;;;;;;;;;;5051704;28;20108;-88
2021/09/14 10:06:18;;;;;;;18.85;8.65;;;;;;;;;;5051575;28;20431;-88
2021/09/14 10:08:48;;;;;;;14.88;9.00;;;;;;;;;;5051396;28;20013;-88
2021/09/14 10:11:22;;;;;;;13.23;8.35;;;;;;;;;;5051790;28;20036;-88
2021/09/14 10:13:48;;;;;;;16.25;8.20;;;;;;;;;;5051833;28;20029;-88
2021/09/14 10:16:22;;;;;;;12.90;8.23;;;;;;;;;;5052663;28;20031;-89
2021/09/14 10:18:47;;;;;;;14.55;8.10;;;;;;;;;;5051804;28;20032;-89
2021/09/14 10:21:18;;;;;;;18.48;8.93;;;;;;;;;;5052504;28;20457;-88
2021/09/14 10:23:52;;;;;;;14.75;9.25;;;;;;;;;;5051769;28;20044;-88
2021/09/14 10:26:17;;;;;;;12.95;8.38;;;;;;;;;;5051315;28;20091;-88
2021/09/14 10:28:46;;;;;;;16.90;8.75;;;;;;;;;;5051477;28;20017;-88
2021/09/14 10:31:26;;;;;;;17.05;8.75;;;;;;;;;;5052465;28;20021;-88
2021/09/14 10:34:03;;;;;;;13.30;8.23;;;;;;;;;;5052899;28;20021;-89
2021/09/14 10:36:29;;;;;;;14.40;8.00;;;;;;;;;;5051093;28;20024;-88
2021/09/14 10:38:55;;;;;;;18.27;8.05;;;;;;;;;;5051681;28;20025;-89
2021/09/14 10:41:20;;;;;;;15.90;7.40;;;;;;;;;;5051512;28;20025;-88
2021/09/14 10:43:55;;;;;;;15.23;7.80;;;;;;;;;;5051500;28;20025;-89
2021/09/14 10:46:21;;;;;;;11.85;5.95;;;;;;;;;;5051278;28;20032;-89
2021/09/14 10:48:48;;;;;;;14.70;7.93;;;;;;;;;;5050789;28;20050;-89
2021/09/14 10:51:14;;;;;;;13.40;8.55;;;;;;;;;;5055619;28;20025;-88
2021/09/14 10:53:40;;;;;;;13.27;7.75;;;;;;;;;;5055912;28;20334;-89
2021/09/14 10:56:06;;;;;;;14.75;7.53;;;;;;;;;;5054865;28;20150;-88
2021/09/14 10:58:44;;;;;;;11.85;6.35;;;;;;;;;;5055734;28;20450;-88
2021/09/14 11:01:10;;;;;;;15.00;8.38;;;;;;;;;;5055246;28;20040;-89
2021/09/14 11:03:35;;;;;;;13.93;7.93;;;;;;;;;;5055137;28;20021;-89
2021/09/14 11:06:01;;;;;;;18.38;8.35;;;;;;;;;;5056167;28;20023;-89
2021/09/14 11:08:26;;;;;;;13.80;7.90;;;;;;;;;;5053573;28;20079;-88
2021/09/14 11:10:59;;;;;;;12.75;7.63;;;;;;;;;;5055835;28;20023;-88
2021/09/14 11:13:25;;;;;;;18.25;10.13;;;;;;;;;;5054748;28;20021;-89
2021/09/14 11:16:01;;;;;;;19.05;9.68;;;;;;;;;;5055450;28;20087;-88
2021/09/14 11:18:27;;;;;;;14.40;6.60;;;;;;;;;;5054570;28;20025;-88
2021/09/14 11:20:54;;;;;;;20.48;11.40;;;;;;;;;;5054579;28;20021;-88
2021/09/14 11:23:24;;;;;;;18.25;9.88;;;;;;;;;;5087842;28;20032;-89
2021/09/14 11:25:49;;;;;;;20.63;9.85;;;;;;;;;;5048993;28;20161;-88
2021/09/14 11:28:16;;;;;;;19.17;9.85;;;;;;;;;;5055905;28;20016;-88
2021/09/14 11:30:51;;;;;;;25.35;11.05;;;;;;;;;;5054336;28;20016;-88
2021/09/14 11:33:16;;;;;;;24.95;11.45;;;;;;;;;;5081991;28;20032;-89
2021/09/14 11:35:41;;;;;;;18.83;9.98;;;;;;;;;;5082682;28;20025;-89
2021/09/14 11:38:07;;;;;;;16.73;9.95;;;;;;;;;;5053945;28;20110;-89
2021/09/14 11:40:34;;;;;;;20.67;10.55;;;;;;;;;;5054090;28;20021;-89
2021/09/14 11:43:01;;;;;;;19.65;9.75;;;;;;;;;;5058627;28;20134;-89
2021/09/14 11:45:28;;;;;;;20.98;9.70;;;;;;;;;;5052803;28;20453;-88
2021/09/14 11:47:53;;;;;;;18.00;9.43;;;;;;;;;;5054222;28;20028;-88
2021/09/14 11:50:26;;;;;;;20.83;10.32;;;;;;;;;;5055688;28;20037;-89
2021/09/14 11:52:51;;;;;;;;;;;;;;;;;;5088406;28;20017;-88
2021/09/14 11:55:16;;;;;;;20.23;10.57;;;;;;;;;;5052270;28;20313;-89
2021/09/14 11:57:41;;;;;;;19.83;10.63;;;;;;;;;;5054190;28;20082;-89
2021/09/14 12:00:10;;;;;;;22.63;11.52;;;;;;;;;;5055043;28;20044;-89
2021/09/14 12:02:35;;;;;;;23.55;9.23;;;;;;;;;;5086564;28;20025;-88
2021/09/14 12:05:00;;;;;;;17.60;9.77;;;;;;;;;;5053343;28;20021;-88
2021/09/14 12:07:26;;;;;;;19.45;9.65;;;;;;;;;;5054947;28;20032;-88
2021/09/14 12:10:00;;;;;;;21.33;8.57;;;;;;;;;;5053231;28;20017;-88
2021/09/14 12:12:25;;;;;;;20.05;10.25;;;;;;;;;;5083849;28;20025;-89
2021/09/14 12:14:54;;;;;;;20.38;9.90;;;;;;;;;;5054874;28;20016;-88
2021/09/14 12:17:26;;;;;;;19.13;10.52;;;;;;;;;;5053627;28;20013;-88
2021/09/14 12:19:51;;;;;;;16.83;10.15;;;;;;;;;;5082348;28;20024;-89
2021/09/14 12:22:16;;;;;;;13.68;8.85;;;;;;;;;;5087118;28;20476;-88
2021/09/14 12:24:41;;;;;;;17.00;9.80;;;;;;;;;;5053454;28;20017;-89
2021/09/14 12:27:06;;;;;;;15.73;8.82;;;;;;;;;;5053596;28;20024;-88
2021/09/14 12:29:32;;;;;;;17.42;8.65;;;;;;;;;;5052826;28;20013;-89
2021/09/14 12:31:57;;;;;;;16.67;7.75;;;;;;;;;;5054858;28;20048;-89
2021/09/14 12:34:22;;;;;;;11.23;7.25;;;;;;;;;;5053160;28;20070;-89
2021/09/14 12:36:47;;;;;;;12.55;7.15;;;;;;;;;;5053530;28;20468;-89
2021/09/14 12:39:13;;;;;;;11.23;6.40;;;;;;;;;;5052785;28;20039;-89
2021/09/14 12:41:38;;;;;;;11.55;6.65;;;;;;;;;;5053440;28;20032;-89
2021/09/14 12:44:04;;;;;;;17.05;7.45;;;;;;;;;;5053139;28;20110;-89
2021/09/14 12:46:29;;;;;;;14.10;8.57;;;;;;;;;;5054088;28;20017;-89
2021/09/14 12:48:55;;;;;;;15.85;8.02;;;;;;;;;;5054277;28;20037;-89
2021/09/14 12:51:20;;;;;;;14.65;8.80;;;;;;;;;;5054079;28;20021;-89
2021/09/14 12:53:45;;;;;;;14.60;8.52;;;;;;;;;;5052991;28;20017;-89
2021/09/14 12:56:11;;;;;;;19.05;10.32;;;;;;;;;;5051606;28;20376;-89
2021/09/14 12:58:36;;;;;;;24.50;12.10;;;;;;;;;;5086197;28;20131;-89
2021/09/14 13:01:01;;;;;;;18.75;11.85;;;;;;;;;;5054140;28;20024;-89
2021/09/14 13:03:27;;;;;;;25.58;11.55;;;;;;;;;;5052571;28;20102;-89
2021/09/14 13:05:52;;;;;;;21.60;12.75;;;;;;;;;;5044565;28;20033;-89
2021/09/14 13:08:17;;;;;;;26.48;12.85;;;;;;;;;;5046571;28;20040;-88
2021/09/14 13:10:42;;;;;;;26.10;13.43;;;;;;;;;;5086208;28;20020;-88
2021/09/14 13:16:11;;;;;;;21.60;12.50;;;;;;;;;;5047541;28;20025;-88
2021/09/14 13:18:37;;;;;;;30.27;13.73;;;;;;;;;;5056687;28;20021;-88
2021/09/14 13:21:04;;;;;;;24.98;13.75;;;;;;;;;;5054589;28;20021;-89
2021/09/14 13:23:29;;;;;;;23.25;13.63;;;;;;;;;;5081817;28;20021;-88
2021/09/14 13:25:54;;;;;;;19.20;11.73;;;;;;;;;;5050690;28;20460;-89
2021/09/14 13:28:19;;;;;;;23.52;12.52;;;;;;;;;;5084653;28;20023;-87
2021/09/14 13:30:45;;;;;;;21.27;12.93;;;;;;;;;;5058790;28;20021;-88
2021/09/14 13:33:10;;;;;;;16.73;10.38;;;;;;;;;;5051772;28;20017;-88
2021/09/14 13:35:35;;;;;;;23.77;11.13;;;;;;;;;;5025818;28;20037;-88
2021/09/14 13:38:01;;;;;;;22.15;10.98;;;;;;;;;;5031739;28;20108;-88
2021/09/14 13:40:26;;;;;;;17.80;9.65;;;;;;;;;;5031419;28;20022;-88
2021/09/14 13:42:56;;;;;;;24.05;10.40;;;;;;;;;;5031797;28;20104;-88
2021/09/14 13:48:06;;;;;;;22.60;13.07;;;;;;;;;;5032322;28;20452;-88
2021/09/14 13:50:31;;;;;;;28.30;13.68;;;;;;;;;;5031596;28;20029;-88
2021/09/14 13:52:56;;;;;;;24.48;14.77;;;;;;;;;;5031356;28;20021;-89
2021/09/14 13:55:22;;;;;;;22.00;12.30;;;;;;;;;;5031267;28;20043;-88
2021/09/14 13:57:47;;;;;;;19.52;11.10;;;;;;;;;;5030650;28;20029;-88
2021/09/14 14:00:12;;;;;;;25.48;10.93;;;;;;;;;;5030760;28;20401;-88
2021/09/14 14:02:37;;;;;;;18.35;11.52;;;;;;;;;;5031026;28;20033;-89
2021/09/14 14:05:03;;;;;;;19.55;11.23;;;;;;;;;;5033018;28;20473;-88
2021/09/14 14:07:28;;;;;;;22.38;11.30;;;;;;;;;;5034034;28;20025;-88
2021/09/14 14:09:53;;;;;;;22.67;11.88;;;;;;;;;;5032715;28;20033;-88
2021/09/14 14:12:18;;;;;;;16.38;11.63;;;;;;;;;;5030814;28;20021;-88
2021/09/14 14:14:44;;;;;;;19.38;11.23;;;;;;;;;;5030894;28;20039;-88
2021/09/14 14:17:09;;;;;;;18.58;10.65;;;;;;;;;;5030453;28;20503;-88
2021/09/14 14:19:34;;;;;;;21.15;12.75;;;;;;;;;;5030941;28;20528;-88
2021/09/14 14:21:59;;;;;;;18.52;11.70;;;;;;;;;;5064502;28;20052;-88
2021/09/14 14:24:25;;;;;;;25.27;12.90;;;;;;;;;;5030462;28;20017;-88
2021/09/14 14:26:50;;;;;;;21.27;12.30;;;;;;;;;;5032296;28;20076;-88
2021/09/14 14:29:15;;;;;;;17.23;11.05;;;;;;;;;;5031731;28;20032;-88
2021/09/14 14:31:40;;;;;;;16.33;10.77;;;;;;;;;;5032624;28;20014;-88
2021/09/14 14:34:06;;;;;;;19.58;11.00;;;;;;;;;;5032619;28;20071;-88
2021/09/14 14:36:31;;;;;;;15.90;10.68;;;;;;;;;;5042230;28;20480;-89
2021/09/14 14:38:56;;;;;;;18.52;11.40;;;;;;;;;;5031033;28;21093;-88
2021/09/14 14:41:21;;;;;;;17.60;11.00;;;;;;;;;;5029823;28;20021;-89
2021/09/14 14:43:47;;;;;;;20.48;12.05;;;;;;;;;;5030941;28;20532;-89
2021/09/14 14:46:12;;;;;;;21.40;11.90;;;;;;;;;;5063635;28;20021;-88
2021/09/14 14:48:37;;;;;;;23.85;12.95;;;;;;;;;;5027258;28;20025;-89
2021/09/14 14:51:03;;;;;;;20.05;11.32;;;;;;;;;;5031833;28;20005;-88
2021/09/14 14:53:28;;;;;;;23.75;12.85;;;;;;;;;;5029632;28;20080;-89
2021/09/14 14:55:53;;;;;;;25.25;13.55;;;;;;;;;;5022562;28;20040;-89
2021/09/14 14:58:18;;;;;;;22.38;13.07;;;;;;;;;;5028424;28;20018;-90
2021/09/14 15:00:44;;;;;;;22.02;12.88;;;;;;;;;;5031495;28;20017;-89
2021/09/14 15:03:09;;;;;;;23.83;13.20;;;;;;;;;;5037940;28;20077;-89
2021/09/14 15:05:35;;;;;;;26.02;14.63;;;;;;;;;;5024311;28;20021;-89
2021/09/14 15:08:00;;;;;;;23.73;14.25;;;;;;;;;;5030854;28;20458;-90
2021/09/14 15:10:25;;;;;;;29.35;14.95;;;;;;;;;;5040479;28;20034;-89
2021/09/14 15:12:52;;;;;;;28.88;15.73;;;;;;;;;;5030879;28;20096;-89
2021/09/14 15:15:17;;;;;;;28.27;15.85;;;;;;;;;;5031586;28;20022;-89
2021/09/14 15:17:43;;;;;;;30.27;16.48;;;;;;;;;;5028480;28;20022;-89